Time;durP1;ratioP1;P1;durP2;ratioP2;P2;SDS_P1;SDS_P2;PMS_P1;PMS_P2;Temp;Humidity;BMP_temperature;BMP_pressure;BME280_temperature;BME280_humidity;BME280_pressure;Samples;Min_cycle;Max_cycle;Signal;HPM_P1;HPM_P2
2022/12/06 00:01:33;;;;;;;;;3.00;3.00;;;;;;;;114875;1200;24687;-57
2022/12/06 00:04:05;;;;;;;;;5.00;4.50;;;;;;;;114846;1196;25004;-57
2022/12/06 00:06:38;;;;;;;;;3.00;3.00;;;;;;;;114839;1208;24906;-57
2022/12/06 00:09:07;;;;;;;;;5.00;5.00;;;;;;;;114882;1203;25518;-57
2022/12/06 00:11:36;;;;;;;;;5.50;4.50;;;;;;;;114907;1203;25348;-57
2022/12/06 00:14:06;;;;;;;;;6.67;5.00;;;;;;;;114871;1200;24991;-57
2022/12/06 00:16:34;;;;;;;;;5.33;3.00;;;;;;;;114878;1200;25732;-57
2022/12/06 00:19:04;;;;;;;;;4.67;4.33;;;;;;;;114865;1206;24860;-57
2022/12/06 00:21:35;;;;;;;;;5.50;5.00;;;;;;;;114865;1200;25382;-57
2022/12/06 00:24:14;;;;;;;;;5.00;4.00;;;;;;;;114902;1203;26317;-57
2022/12/06 00:26:45;;;;;;;;;4.50;4.50;;;;;;;;114852;1202;24934;-58
2022/12/06 00:29:17;;;;;;;;;5.50;5.00;;;;;;;;114895;1204;24893;-57
2022/12/06 00:31:46;;;;;;;;;6.00;5.33;;;;;;;;114839;1200;25446;-59
2022/12/06 00:34:14;;;;;;;;;4.50;4.00;;;;;;;;114827;1199;25110;-59
2022/12/06 00:36:43;;;;;;;;;6.00;4.50;;;;;;;;114919;1207;26112;-58
2022/12/06 00:39:14;;;;;;;;;4.50;3.00;;;;;;;;114815;1200;25213;-59
2022/12/06 00:41:42;;;;;;;;;6.00;4.50;;;;;;;;114830;1200;25429;-59
2022/12/06 00:44:10;;;;;;;;;6.50;6.00;;;;;;;;114858;1200;24866;-59
2022/12/06 00:46:39;;;;;;;;;3.00;3.00;;;;;;;;114856;1200;25420;-59
2022/12/06 00:49:08;;;;;;;;;5.50;4.00;;;;;;;;114872;1200;25707;-59
2022/12/06 00:51:37;;;;;;;;;3.33;3.33;;;;;;;;114910;1203;24986;-58
2022/12/06 00:54:07;;;;;;;;;5.50;5.50;;;;;;;;114906;1200;25438;-59
2022/12/06 00:56:36;;;;;;;;;3.00;3.00;;;;;;;;114877;1200;25379;-56
2022/12/06 00:59:05;;;;;;;;;5.00;4.00;;;;;;;;114930;1203;25582;-57
2022/12/06 01:01:34;;;;;;;;;5.00;5.00;;;;;;;;114819;1206;25324;-57
2022/12/06 01:04:05;;;;;;;;;4.33;4.33;;;;;;;;114932;1201;25020;-58
2022/12/06 01:06:35;;;;;;;;;5.00;4.00;;;;;;;;114896;1199;25649;-58
2022/12/06 01:09:07;;;;;;;;;3.33;3.33;;;;;;;;114876;1203;24762;-58
2022/12/06 01:11:35;;;;;;;;;3.00;3.00;;;;;;;;114859;1206;24797;-57
2022/12/06 01:14:04;;;;;;;;;3.50;3.00;;;;;;;;114928;1208;24821;-57
2022/12/06 01:16:33;;;;;;;;;5.00;5.00;;;;;;;;114858;1205;25610;-58
2022/12/06 01:19:04;;;;;;;;;3.50;3.50;;;;;;;;114890;1203;25319;-58
2022/12/06 01:21:32;;;;;;;;;5.33;4.00;;;;;;;;114862;1203;24716;-58
2022/12/06 01:24:01;;;;;;;;;4.00;4.00;;;;;;;;114829;1205;25168;-58
2022/12/06 01:26:31;;;;;;;;;8.50;5.50;;;;;;;;114789;1206;25478;-64
2022/12/06 01:29:00;;;;;;;;;5.00;4.00;;;;;;;;114878;1208;24793;-61
2022/12/06 01:31:29;;;;;;;;;6.00;6.00;;;;;;;;114866;1197;25340;-60
2022/12/06 01:34:08;;;;;;;;;5.00;5.00;;;;;;;;114821;1205;25545;-56
2022/12/06 01:36:37;;;;;;;;;5.00;5.00;;;;;;;;114791;1202;26102;-57
2022/12/06 01:39:09;;;;;;;;;6.50;5.50;;;;;;;;115176;1200;25214;-58
2022/12/06 01:41:38;;;;;;;;;3.00;3.00;;;;;;;;114910;1208;25082;-56
2022/12/06 01:44:27;;;;;;;;;3.50;3.50;;;;;;;;114879;1204;24894;-58
2022/12/06 01:46:55;;;;;;;;;7.50;5.50;;;;;;;;114814;1207;24855;-58
2022/12/06 01:49:30;;;;;;;;;4.00;3.00;;;;;;;;115489;1201;25075;-58
2022/12/06 01:52:01;;;;;;;;;3.00;3.00;;;;;;;;114904;1203;24831;-58
2022/12/06 01:54:31;;;;;;;;;3.67;3.00;;;;;;;;114894;1196;25569;-58
2022/12/06 01:57:02;;;;;;;;;7.00;5.00;;;;;;;;114850;1206;24950;-58
2022/12/06 01:59:30;;;;;;;;;5.50;4.50;;;;;;;;114795;1206;24754;-56
2022/12/06 02:01:58;;;;;;;;;6.00;5.00;;;;;;;;114889;1203;25035;-56
2022/12/06 02:04:29;;;;;;;;;4.00;3.00;;;;;;;;114872;1206;25033;-55
2022/12/06 02:06:58;;;;;;;;;5.00;5.00;;;;;;;;114878;1206;25598;-58
2022/12/06 02:09:27;;;;;;;;;3.33;3.33;;;;;;;;114793;1203;25182;-57
2022/12/06 02:11:56;;;;;;;;;3.00;3.00;;;;;;;;114865;1203;25091;-58
2022/12/06 02:14:29;;;;;;;;;4.00;4.00;;;;;;;;114845;1202;25670;-58
2022/12/06 02:17:18;;;;;;;;;3.00;3.00;;;;;;;;114853;1197;25364;-57
2022/12/06 02:20:04;;;;;;;;;6.00;3.00;;;;;;;;114892;1206;25443;-58
2022/12/06 02:22:45;;;;;;;;;3.00;3.00;;;;;;;;114903;1202;25702;-57
2022/12/06 02:25:52;;;;;;;;;5.50;4.50;;;;;;;;114878;1207;24797;-57
2022/12/06 02:28:33;;;;;;;;;4.00;4.00;;;;;;;;114399;1206;24901;-57
2022/12/06 02:31:07;;;;;;;;;6.00;4.00;;;;;;;;114815;1206;25074;-57
2022/12/06 02:33:48;;;;;;;;;3.00;3.00;;;;;;;;114903;1200;25499;-57
2022/12/06 02:36:39;;;;;;;;;3.00;3.00;;;;;;;;114837;1200;25500;-57
2022/12/06 02:39:14;;;;;;;;;4.00;4.00;;;;;;;;114885;1202;24920;-58
2022/12/06 02:41:58;;;;;;;;;2.00;2.00;;;;;;;;114855;1199;25056;-57
2022/12/06 02:44:39;;;;;;;;;3.33;2.00;;;;;;;;114838;1203;24789;-57
2022/12/06 02:47:10;;;;;;;;;2.00;2.00;;;;;;;;114888;1203;25556;-57
2022/12/06 02:49:45;;;;;;;;;2.50;2.50;;;;;;;;114929;1200;25396;-57
2022/12/06 02:52:13;;;;;;;;;3.00;3.00;;;;;;;;114931;1208;25434;-57
2022/12/06 02:54:43;;;;;;;;;3.00;3.00;;;;;;;;114919;1203;25243;-57
2022/12/06 02:57:11;;;;;;;;;3.00;3.00;;;;;;;;114896;1203;25170;-57
2022/12/06 02:59:50;;;;;;;;;3.00;3.00;;;;;;;;114922;1200;25623;-57
2022/12/06 03:02:19;;;;;;;;;3.00;3.00;;;;;;;;114865;1200;25235;-57
2022/12/06 03:05:12;;;;;;;;;3.00;3.00;;;;;;;;114882;1196;25171;-58
2022/12/06 03:07:43;;;;;;;;;3.00;3.00;;;;;;;;114891;1201;25053;-57
2022/12/06 03:10:17;;;;;;;;;3.00;3.00;;;;;;;;114852;1208;25290;-57
2022/12/06 03:13:00;;;;;;;;;4.50;3.00;;;;;;;;114887;1203;24774;-57
2022/12/06 03:15:52;;;;;;;;;4.00;2.00;;;;;;;;114886;1199;25274;-57
2022/12/06 03:18:36;;;;;;;;;4.00;4.00;;;;;;;;114894;1208;25311;-57
2022/12/06 03:21:09;;;;;;;;;3.00;3.00;;;;;;;;114827;1203;25095;-57
2022/12/06 03:23:44;;;;;;;;;2.00;2.00;;;;;;;;114873;1203;25147;-57
2022/12/06 03:26:16;;;;;;;;;2.00;2.00;;;;;;;;114904;1203;24891;-57
2022/12/06 03:28:46;;;;;;;;;5.00;3.00;;;;;;;;114913;1199;25586;-57
2022/12/06 03:31:15;;;;;;;;;3.00;3.00;;;;;;;;114856;1200;25645;-57
2022/12/06 03:33:49;;;;;;;;;3.50;3.00;;;;;;;;114909;1196;25231;-57
2022/12/06 03:36:17;;;;;;;;;3.67;2.00;;;;;;;;114936;1208;25898;-57
2022/12/06 03:38:53;;;;;;;;;2.00;2.00;;;;;;;;114876;1206;25501;-57
2022/12/06 03:41:24;;;;;;;;;3.50;2.00;;;;;;;;114889;1203;25322;-57
2022/12/06 03:43:53;;;;;;;;;2.00;2.00;;;;;;;;114878;1203;25077;-57
2022/12/06 03:46:30;;;;;;;;;3.50;3.25;;;;;;;;114928;1203;25482;-57
2022/12/06 03:49:11;;;;;;;;;3.50;3.50;;;;;;;;114833;1205;25703;-57
2022/12/06 03:51:41;;;;;;;;;4.33;2.67;;;;;;;;114873;1200;25443;-57
2022/12/06 03:54:10;;;;;;;;;3.00;2.50;;;;;;;;114868;1200;25260;-57
2022/12/06 03:56:38;;;;;;;;;3.00;3.00;;;;;;;;114913;1203;25390;-57
2022/12/06 03:59:08;;;;;;;;;5.00;4.00;;;;;;;;114908;1203;24723;-57
2022/12/06 04:01:37;;;;;;;;;2.50;2.50;;;;;;;;114900;1200;25642;-57
2022/12/06 04:04:06;;;;;;;;;3.00;3.00;;;;;;;;114903;1200;25384;-57
2022/12/06 04:06:35;;;;;;;;;3.00;3.00;;;;;;;;114875;1206;25012;-57
2022/12/06 04:11:50;;;;;;;;;4.00;3.00;;;;;;;;114743;1206;26207;-57
2022/12/06 04:14:18;;;;;;;;;2.00;2.00;;;;;;;;114884;1200;25064;-57
2022/12/06 04:19:34;;;;;;;;;4.00;4.00;;;;;;;;114911;1206;25590;-57
2022/12/06 04:24:49;;;;;;;;;4.67;2.33;;;;;;;;114873;1200;25947;-58
2022/12/06 04:38:42;;;;;;;;;4.00;2.00;;;;;;;;114895;1204;26236;-57
2022/12/06 04:43:40;;;;;;;;;3.50;3.00;;;;;;;;114862;1206;25739;-57
2022/12/06 04:44:01;;;;;;;;;3.00;3.00;;;;;;;;114864;1200;25051;-60
2022/12/06 04:46:30;;;;;;;;;0.00;0.00;;;;;;;;114905;1199;25520;-57
2022/12/06 04:48:58;;;;;;;;;4.33;4.33;;;;;;;;114870;1205;25623;-57
2022/12/06 04:51:27;;;;;;;;;3.00;3.00;;;;;;;;114876;1203;25140;-57
2022/12/06 04:53:55;;;;;;;;;4.00;4.00;;;;;;;;114870;1200;25456;-58
2022/12/06 04:56:23;;;;;;;;;2.50;2.50;;;;;;;;114859;1206;25005;-57
2022/12/06 04:58:52;;;;;;;;;4.00;3.00;;;;;;;;114820;1205;25927;-59
2022/12/06 05:01:20;;;;;;;;;2.67;2.67;;;;;;;;114847;1208;24659;-59
2022/12/06 05:03:49;;;;;;;;;4.00;4.00;;;;;;;;114900;1208;24684;-58
2022/12/06 05:06:17;;;;;;;;;3.00;2.00;;;;;;;;114848;1206;24751;-57
2022/12/06 05:08:46;;;;;;;;;3.00;3.00;;;;;;;;114896;1196;25284;-58
2022/12/06 05:11:14;;;;;;;;;5.50;3.50;;;;;;;;114742;1209;25573;-58
2022/12/06 05:13:43;;;;;;;;;3.00;3.00;;;;;;;;114778;1202;25172;-66
2022/12/06 05:16:12;;;;;;;;;1.67;1.67;;;;;;;;114891;1207;25822;-65
2022/12/06 05:18:40;;;;;;;;;4.00;3.00;;;;;;;;114679;1202;25599;-64
2022/12/06 05:21:21;;;;;;;;;4.00;1.50;;;;;;;;114850;1200;25062;-57
2022/12/06 05:23:53;;;;;;;;;4.50;2.50;;;;;;;;114856;1199;24843;-57
2022/12/06 05:26:23;;;;;;;;;5.00;3.00;;;;;;;;114898;1203;25132;-57
2022/12/06 05:28:52;;;;;;;;;2.00;2.00;;;;;;;;114896;1200;25201;-58
2022/12/06 05:31:21;;;;;;;;;4.00;3.00;;;;;;;;114930;1202;25372;-57
2022/12/06 05:33:51;;;;;;;;;5.50;3.00;;;;;;;;114848;1205;25437;-58
2022/12/06 05:36:22;;;;;;;;;3.00;2.67;;;;;;;;114904;1195;24822;-57
2022/12/06 05:38:52;;;;;;;;;6.00;4.00;;;;;;;;114696;1206;25318;-59
2022/12/06 05:41:21;;;;;;;;;5.50;4.00;;;;;;;;114869;1202;25257;-60
2022/12/06 05:43:50;;;;;;;;;6.00;5.00;;;;;;;;114834;1208;24902;-60
2022/12/06 05:46:18;;;;;;;;;32.00;29.00;;;;;;;;114873;1207;24919;-60
2022/12/06 05:48:47;;;;;;;;;40.00;35.00;;;;;;;;114872;1202;25203;-61
2022/12/06 05:51:15;;;;;;;;;;;;;;;;;;114906;1206;25039;-61
2022/12/06 05:53:43;;;;;;;;;41.50;37.00;;;;;;;;114846;1202;26340;-60
2022/12/06 05:56:12;;;;;;;;;51.00;40.00;;;;;;;;114854;1200;25630;-61
2022/12/06 05:58:40;;;;;;;;;54.00;42.50;;;;;;;;114772;1199;24795;-60
2022/12/06 06:01:09;;;;;;;;;59.50;48.00;;;;;;;;114830;1201;25593;-60
2022/12/06 06:03:37;;;;;;;;;60.50;46.00;;;;;;;;114885;1200;25290;-59
2022/12/06 06:06:14;;;;;;;;;58.50;47.00;;;;;;;;114887;1200;24869;-59
2022/12/06 06:08:42;;;;;;;;;55.00;44.00;;;;;;;;114954;1196;25593;-61
2022/12/06 06:11:11;;;;;;;;;52.00;43.00;;;;;;;;114775;1206;25676;-60
2022/12/06 06:13:39;;;;;;;;;52.50;40.50;;;;;;;;114772;1208;25090;-59
2022/12/06 06:16:08;;;;;;;;;56.00;40.00;;;;;;;;114878;1199;25146;-59
2022/12/06 06:18:37;;;;;;;;;51.00;40.00;;;;;;;;114861;1197;25392;-60
2022/12/06 06:21:05;;;;;;;;;49.67;40.33;;;;;;;;114845;1200;25368;-63
2022/12/06 06:23:33;;;;;;;;;45.00;38.00;;;;;;;;114737;1208;25560;-62
2022/12/06 06:26:10;;;;;;;;;41.00;34.00;;;;;;;;114890;1206;25660;-60
2022/12/06 06:28:38;;;;;;;;;47.00;36.00;;;;;;;;114938;1196;24760;-61
2022/12/06 06:31:07;;;;;;;;;45.00;37.50;;;;;;;;114916;1203;25222;-62
2022/12/06 06:33:36;;;;;;;;;43.00;34.00;;;;;;;;114921;1203;24831;-61
2022/12/06 06:36:04;;;;;;;;;50.00;40.00;;;;;;;;114856;1208;25071;-63
2022/12/06 06:38:33;;;;;;;;;41.00;35.00;;;;;;;;114860;1196;25360;-62
2022/12/06 06:41:02;;;;;;;;;41.00;36.00;;;;;;;;114824;1200;24898;-63
2022/12/06 06:43:31;;;;;;;;;42.00;34.00;;;;;;;;114896;1200;24820;-61
2022/12/06 06:46:01;;;;;;;;;38.00;35.00;;;;;;;;114862;1202;25394;-63
2022/12/06 06:48:32;;;;;;;;;32.00;29.00;;;;;;;;114812;1206;25530;-61
2022/12/06 06:51:09;;;;;;;;;31.00;31.00;;;;;;;;114732;1203;24845;-61
2022/12/06 06:53:38;;;;;;;;;33.50;30.50;;;;;;;;114724;1200;26129;-61
2022/12/06 06:56:07;;;;;;;;;42.50;32.00;;;;;;;;114840;1195;25009;-61
2022/12/06 06:58:36;;;;;;;;;31.00;28.00;;;;;;;;114783;1200;25354;-61
2022/12/06 07:01:06;;;;;;;;;28.00;23.00;;;;;;;;114864;1206;24853;-61
2022/12/06 07:03:35;;;;;;;;;36.00;30.00;;;;;;;;114791;1205;25376;-63
2022/12/06 07:06:07;;;;;;;;;35.50;30.50;;;;;;;;114894;1200;25150;-63
2022/12/06 07:08:37;;;;;;;;;35.00;32.00;;;;;;;;114907;1204;25839;-59
2022/12/06 07:11:05;;;;;;;;;33.00;29.33;;;;;;;;114879;1196;24708;-61
2022/12/06 07:13:35;;;;;;;;;31.00;26.00;;;;;;;;114878;1203;24886;-62
2022/12/06 07:16:05;;;;;;;;;39.50;32.00;;;;;;;;114849;1201;25485;-61
2022/12/06 07:18:33;;;;;;;;;28.00;27.00;;;;;;;;114840;1208;25163;-62
2022/12/06 07:21:06;;;;;;;;;31.50;27.50;;;;;;;;114767;1206;25768;-62
2022/12/06 07:23:35;;;;;;;;;27.00;26.00;;;;;;;;114771;1201;24726;-63
2022/12/06 07:26:06;;;;;;;;;30.50;28.50;;;;;;;;114832;1208;24750;-60
2022/12/06 07:28:36;;;;;;;;;31.00;22.00;;;;;;;;114776;1206;25429;-60
2022/12/06 07:31:26;;;;;;;;;24.00;21.00;;;;;;;;114758;1203;25491;-60
2022/12/06 07:33:59;;;;;;;;;33.00;28.00;;;;;;;;114888;1206;25060;-59
2022/12/06 07:36:30;;;;;;;;;31.00;25.00;;;;;;;;114846;1199;25759;-61
2022/12/06 07:38:59;;;;;;;;;27.00;22.00;;;;;;;;114866;1200;25002;-60
2022/12/06 07:47:03;;;;;;;;;28.67;24.00;;;;;;;;114902;1204;24734;-64
2022/12/06 07:49:32;;;;;;;;;26.50;23.00;;;;;;;;114855;1202;25813;-64
2022/12/06 07:52:01;;;;;;;;;21.00;19.50;;;;;;;;114954;1208;25618;-63
2022/12/06 07:54:29;;;;;;;;;31.00;25.00;;;;;;;;114898;1202;25448;-63
2022/12/06 07:56:57;;;;;;;;;24.00;18.00;;;;;;;;114883;1208;25157;-63
2022/12/06 07:59:26;;;;;;;;;24.33;23.00;;;;;;;;114836;1200;25210;-61
2022/12/06 08:01:54;;;;;;;;;22.50;20.50;;;;;;;;114901;1204;25332;-61
2022/12/06 08:04:23;;;;;;;;;26.00;22.00;;;;;;;;114830;1199;25511;-61
2022/12/06 08:06:53;;;;;;;;;22.00;19.50;;;;;;;;114834;1200;24758;-61
2022/12/06 08:09:21;;;;;;;;;18.50;18.50;;;;;;;;114895;1201;25152;-63
2022/12/06 08:11:50;;;;;;;;;33.00;24.00;;;;;;;;114937;1202;25240;-63
2022/12/06 08:14:18;;;;;;;;;27.00;21.00;;;;;;;;114867;1206;25173;-60
2022/12/06 08:16:46;;;;;;;;;24.00;20.00;;;;;;;;114868;1200;25845;-61
2022/12/06 08:19:15;;;;;;;;;21.00;21.00;;;;;;;;114841;1200;25334;-62
2022/12/06 08:21:43;;;;;;;;;24.00;22.00;;;;;;;;114887;1200;26169;-64
2022/12/06 08:24:12;;;;;;;;;19.00;18.00;;;;;;;;114831;1200;24695;-64
2022/12/06 08:26:40;;;;;;;;;20.00;19.00;;;;;;;;114839;1204;25294;-60
2022/12/06 08:29:09;;;;;;;;;23.00;17.00;;;;;;;;114796;1206;25109;-72
2022/12/06 08:31:38;;;;;;;;;21.00;18.00;;;;;;;;114894;1201;25600;-66
2022/12/06 08:34:06;;;;;;;;;18.50;17.50;;;;;;;;114818;1203;24841;-63
2022/12/06 08:36:37;;;;;;;;;20.00;16.00;;;;;;;;114853;1206;25531;-60
2022/12/06 08:39:07;;;;;;;;;20.00;18.00;;;;;;;;114757;1203;25527;-62
2022/12/06 08:41:54;;;;;;;;;20.00;17.00;;;;;;;;114701;1208;25208;-62
2022/12/06 08:44:27;;;;;;;;;19.00;18.00;;;;;;;;114759;1197;24930;-65
2022/12/06 08:46:57;;;;;;;;;18.00;18.00;;;;;;;;114916;1208;25230;-63
2022/12/06 08:49:26;;;;;;;;;21.50;18.00;;;;;;;;114851;1208;25203;-63
2022/12/06 08:51:55;;;;;;;;;15.00;14.00;;;;;;;;114851;1197;24955;-64
2022/12/06 08:54:24;;;;;;;;;17.50;15.50;;;;;;;;114691;1206;25082;-63
2022/12/06 08:56:53;;;;;;;;;19.00;13.00;;;;;;;;114843;1206;24709;-65
2022/12/06 08:59:21;;;;;;;;;15.00;15.00;;;;;;;;114840;1204;25693;-62
2022/12/06 09:01:50;;;;;;;;;15.50;14.50;;;;;;;;114872;1199;25310;-61
2022/12/06 09:04:19;;;;;;;;;19.50;18.50;;;;;;;;114844;1200;25180;-61
2022/12/06 09:06:47;;;;;;;;;18.00;15.50;;;;;;;;114816;1200;25165;-62
2022/12/06 09:09:19;;;;;;;;;19.00;14.00;;;;;;;;114801;1206;25519;-61
2022/12/06 09:11:48;;;;;;;;;21.00;18.00;;;;;;;;114867;1196;25149;-65
2022/12/06 09:14:17;;;;;;;;;13.50;13.50;;;;;;;;114853;1206;25015;-63
2022/12/06 09:16:50;;;;;;;;;17.00;16.00;;;;;;;;114814;1206;24935;-62
2022/12/06 09:19:19;;;;;;;;;18.00;15.00;;;;;;;;114907;1204;25535;-62
2022/12/06 09:21:48;;;;;;;;;18.00;16.00;;;;;;;;114833;1207;25055;-62
2022/12/06 09:24:17;;;;;;;;;17.00;16.00;;;;;;;;114807;1200;25303;-61
2022/12/06 09:26:46;;;;;;;;;;;;;;;;;;114834;1208;25585;-66
2022/12/06 09:29:15;;;;;;;;;12.50;12.50;;;;;;;;114802;1199;24855;-67
2022/12/06 09:31:44;;;;;;;;;15.67;14.00;;;;;;;;114763;1200;25332;-63
2022/12/06 09:34:12;;;;;;;;;18.00;16.00;;;;;;;;114881;1199;25148;-64
2022/12/06 09:36:45;;;;;;;;;22.00;17.00;;;;;;;;114857;1201;26073;-62
2022/12/06 09:39:33;;;;;;;;;17.00;16.00;;;;;;;;114855;1206;25686;-62
2022/12/06 09:42:19;;;;;;;;;17.00;16.00;;;;;;;;114866;1206;25567;-62
2022/12/06 09:44:47;;;;;;;;;17.50;15.50;;;;;;;;114869;1203;25512;-64
2022/12/06 09:47:34;;;;;;;;;17.00;13.00;;;;;;;;114866;1208;25577;-62
2022/12/06 09:50:21;;;;;;;;;13.50;10.50;;;;;;;;114881;1206;25456;-62
2022/12/06 09:53:07;;;;;;;;;15.50;11.50;;;;;;;;114883;1199;25533;-61
2022/12/06 09:55:45;;;;;;;;;13.00;13.00;;;;;;;;114869;1207;25439;-61
2022/12/06 09:58:38;;;;;;;;;18.67;12.67;;;;;;;;114819;1200;24784;-62
2022/12/06 10:01:42;;;;;;;;;15.00;13.50;;;;;;;;114833;1200;24754;-61
2022/12/06 10:04:48;;;;;;;;;10.50;9.00;;;;;;;;114449;1208;24984;-61
2022/12/06 10:07:47;;;;;;;;;19.00;15.00;;;;;;;;114858;1200;25494;-62
2022/12/06 10:10:18;;;;;;;;;19.00;15.33;;;;;;;;114811;1204;26404;-62
2022/12/06 10:13:03;;;;;;;;;19.50;15.00;;;;;;;;114831;1203;25633;-62
2022/12/06 10:15:50;;;;;;;;;18.00;13.00;;;;;;;;114830;1208;24768;-60
2022/12/06 10:18:47;;;;;;;;;18.00;16.50;;;;;;;;114803;1198;25533;-61
2022/12/06 10:21:18;;;;;;;;;19.00;15.00;;;;;;;;114815;1200;24809;-61
2022/12/06 10:23:58;;;;;;;;;14.00;12.00;;;;;;;;114808;1206;25174;-61
2022/12/06 10:26:47;;;;;;;;;18.00;14.00;;;;;;;;114864;1206;25342;-61
2022/12/06 10:29:19;;;;;;;;;20.00;16.00;;;;;;;;114825;1193;25172;-62
2022/12/06 10:32:11;;;;;;;;;17.00;13.00;;;;;;;;114809;1207;25743;-61
2022/12/06 10:34:55;;;;;;;;;18.00;15.50;;;;;;;;116778;1199;24812;-62
2022/12/06 10:37:45;;;;;;;;;14.50;12.50;;;;;;;;116759;1202;25120;-63
2022/12/06 10:40:20;;;;;;;;;15.00;11.00;;;;;;;;116820;1204;25398;-63
2022/12/06 10:42:56;;;;;;;;;16.50;14.00;;;;;;;;116730;1199;25348;-62
2022/12/06 10:48:42;;;;;;;;;21.00;14.00;;;;;;;;115176;1202;25524;-62
2022/12/06 10:51:16;;;;;;;;;18.00;13.00;;;;;;;;114794;1203;24810;-61
2022/12/06 10:53:53;;;;;;;;;16.00;11.50;;;;;;;;114876;1197;24779;-60
2022/12/06 10:56:40;;;;;;;;;10.00;9.50;;;;;;;;114827;1208;24724;-61
2022/12/06 10:59:35;;;;;;;;;16.33;12.33;;;;;;;;114881;1207;24718;-62
2022/12/06 11:02:27;;;;;;;;;13.00;12.00;;;;;;;;114871;1200;24862;-61
2022/12/06 11:05:00;;;;;;;;;11.00;10.00;;;;;;;;114795;1196;25487;-62
2022/12/06 11:07:40;;;;;;;;;16.00;14.00;;;;;;;;114892;1206;26146;-61
2022/12/06 11:10:19;;;;;;;;;14.00;9.00;;;;;;;;114804;1208;25144;-61
2022/12/06 11:12:48;;;;;;;;;14.00;12.50;;;;;;;;114894;1204;25174;-61
2022/12/06 11:15:20;;;;;;;;;13.00;8.50;;;;;;;;114868;1204;25560;-61
2022/12/06 11:17:55;;;;;;;;;14.00;10.00;;;;;;;;114833;1206;25085;-61
2022/12/06 11:20:37;;;;;;;;;12.50;10.00;;;;;;;;114827;1204;25321;-61
2022/12/06 11:23:10;;;;;;;;;13.00;8.00;;;;;;;;114910;1200;25407;-60
2022/12/06 11:26:00;;;;;;;;;10.50;9.00;;;;;;;;114869;1202;25033;-61
2022/12/06 11:28:48;;;;;;;;;14.50;10.50;;;;;;;;114872;1206;24780;-62
2022/12/06 11:31:25;;;;;;;;;15.00;13.00;;;;;;;;114867;1206;25042;-62
2022/12/06 11:33:54;;;;;;;;;15.00;10.50;;;;;;;;114920;1196;25764;-62
2022/12/06 11:36:24;;;;;;;;;15.00;11.00;;;;;;;;114760;1202;24978;-62
2022/12/06 11:38:52;;;;;;;;;16.00;13.00;;;;;;;;114887;1203;25406;-62
2022/12/06 11:41:27;;;;;;;;;18.00;11.00;;;;;;;;114862;1205;24835;-62
2022/12/06 11:43:56;;;;;;;;;16.50;10.00;;;;;;;;114927;1202;25356;-62
2022/12/06 11:46:29;;;;;;;;;11.00;10.00;;;;;;;;114820;1200;24863;-62
2022/12/06 11:49:22;;;;;;;;;12.00;8.00;;;;;;;;114773;1200;25491;-62
2022/12/06 11:51:51;;;;;;;;;7.33;7.33;;;;;;;;114884;1206;25377;-63
2022/12/06 11:54:58;;;;;;;;;11.00;11.00;;;;;;;;114827;1206;24679;-62
2022/12/06 11:58:05;;;;;;;;;12.00;9.00;;;;;;;;114885;1200;25269;-62
2022/12/06 12:00:35;;;;;;;;;11.33;10.33;;;;;;;;114891;1196;26524;-59
2022/12/06 12:03:03;;;;;;;;;8.00;8.00;;;;;;;;114885;1200;25181;-60
2022/12/06 12:05:37;;;;;;;;;9.00;7.00;;;;;;;;114761;1197;25115;-61
2022/12/06 12:08:15;;;;;;;;;9.00;9.00;;;;;;;;114815;1206;24875;-61
2022/12/06 12:10:46;;;;;;;;;6.50;4.00;;;;;;;;114862;1200;24949;-61
2022/12/06 12:16:12;;;;;;;;;10.67;10.67;;;;;;;;114870;1203;24890;-61
2022/12/06 12:18:57;;;;;;;;;14.00;12.00;;;;;;;;114897;1207;25459;-61
2022/12/06 12:21:44;;;;;;;;;13.00;9.00;;;;;;;;114886;1206;25077;-61
2022/12/06 12:24:47;;;;;;;;;14.00;11.00;;;;;;;;114827;1206;25329;-61
2022/12/06 12:27:38;;;;;;;;;9.00;9.00;;;;;;;;114824;1206;25073;-61
2022/12/06 12:30:23;;;;;;;;;15.00;12.00;;;;;;;;114788;1206;25447;-62
2022/12/06 12:33:07;;;;;;;;;11.00;7.00;;;;;;;;114898;1195;24969;-61
2022/12/06 12:35:36;;;;;;;;;10.50;8.50;;;;;;;;114894;1201;25150;-61
2022/12/06 12:38:28;;;;;;;;;6.50;5.50;;;;;;;;114828;1196;25495;-61
2022/12/06 12:41:11;;;;;;;;;10.00;9.00;;;;;;;;114832;1203;25130;-69
2022/12/06 12:43:45;;;;;;;;;14.33;10.33;;;;;;;;114840;1200;25274;-63
2022/12/06 12:46:16;;;;;;;;;11.00;7.00;;;;;;;;114839;1208;24780;-65
2022/12/06 12:48:46;;;;;;;;;13.00;11.00;;;;;;;;114909;1200;25263;-59
2022/12/06 12:51:21;;;;;;;;;10.00;8.00;;;;;;;;114834;1205;25253;-60
2022/12/06 12:53:57;;;;;;;;;9.00;9.00;;;;;;;;114884;1200;25537;-61
2022/12/06 12:56:35;;;;;;;;;14.00;9.00;;;;;;;;114819;1208;25981;-61
2022/12/06 12:59:12;;;;;;;;;7.33;7.33;;;;;;;;114862;1208;24974;-60
2022/12/06 13:02:14;;;;;;;;;9.00;7.00;;;;;;;;114807;1200;25507;-60
2022/12/06 13:04:45;;;;;;;;;11.00;8.00;;;;;;;;114857;1198;25655;-60
2022/12/06 13:07:23;;;;;;;;;10.00;8.00;;;;;;;;114890;1208;25295;-61
2022/12/06 13:10:00;;;;;;;;;13.00;8.00;;;;;;;;114815;1200;24958;-61
2022/12/06 13:12:33;;;;;;;;;8.00;7.00;;;;;;;;114841;1196;25387;-61
2022/12/06 13:15:06;;;;;;;;;9.00;9.00;;;;;;;;114871;1203;25087;-61
2022/12/06 13:17:36;;;;;;;;;12.00;10.00;;;;;;;;114864;1203;25443;-62
2022/12/06 13:20:25;;;;;;;;;9.00;7.00;;;;;;;;114865;1203;24834;-60
2022/12/06 13:23:17;;;;;;;;;12.00;9.00;;;;;;;;114907;1203;25553;-61
2022/12/06 13:26:13;;;;;;;;;10.50;10.50;;;;;;;;114856;1197;25597;-62
2022/12/06 13:28:47;;;;;;;;;10.50;8.50;;;;;;;;114853;1203;24701;-61
2022/12/06 13:31:23;;;;;;;;;11.25;8.00;;;;;;;;114880;1203;25033;-61
2022/12/06 13:33:57;;;;;;;;;10.00;8.00;;;;;;;;114855;1197;25803;-61
2022/12/06 13:36:30;;;;;;;;;13.50;9.00;;;;;;;;114866;1203;25156;-61
2022/12/06 13:39:30;;;;;;;;;8.00;7.00;;;;;;;;114939;1203;25605;-60
2022/12/06 13:42:16;;;;;;;;;6.00;6.00;;;;;;;;114878;1203;24858;-59
2022/12/06 13:44:59;;;;;;;;;12.00;9.00;;;;;;;;114869;1200;25079;-61
2022/12/06 13:47:27;;;;;;;;;8.00;8.00;;;;;;;;114743;1205;25662;-61
2022/12/06 13:50:22;;;;;;;;;11.00;9.00;;;;;;;;114881;1206;24937;-60
2022/12/06 13:52:50;;;;;;;;;13.00;9.00;;;;;;;;114884;1206;24903;-61
2022/12/06 13:55:25;;;;;;;;;11.00;11.00;;;;;;;;114929;1206;25052;-61
2022/12/06 13:57:59;;;;;;;;;8.00;6.50;;;;;;;;114880;1200;24998;-62
2022/12/06 14:00:30;;;;;;;;;8.00;7.50;;;;;;;;114830;1200;25529;-61
2022/12/06 14:03:17;;;;;;;;;7.50;7.50;;;;;;;;114845;1199;24840;-61
2022/12/06 14:06:09;;;;;;;;;12.00;11.00;;;;;;;;114824;1202;24861;-61
2022/12/06 14:08:45;;;;;;;;;11.50;9.50;;;;;;;;114866;1206;25069;-61
2022/12/06 14:11:24;;;;;;;;;12.00;9.00;;;;;;;;114868;1205;24751;-61
2022/12/06 14:13:55;;;;;;;;;7.00;6.00;;;;;;;;114806;1199;25523;-60
2022/12/06 14:16:39;;;;;;;;;7.50;7.50;;;;;;;;114829;1200;25185;-60
2022/12/06 14:19:21;;;;;;;;;13.00;8.00;;;;;;;;114874;1200;25268;-60
2022/12/06 14:21:55;;;;;;;;;11.00;9.00;;;;;;;;114875;1206;25307;-61
2022/12/06 14:24:35;;;;;;;;;12.00;10.00;;;;;;;;114791;1202;25474;-60
2022/12/06 14:27:15;;;;;;;;;11.50;9.50;;;;;;;;114901;1200;25381;-60
2022/12/06 14:30:12;;;;;;;;;8.00;8.00;;;;;;;;114790;1201;24991;-60
2022/12/06 14:32:46;;;;;;;;;6.00;6.00;;;;;;;;114827;1206;25544;-60
2022/12/06 14:35:20;;;;;;;;;7.00;6.00;;;;;;;;114912;1197;25089;-61
2022/12/06 14:37:56;;;;;;;;;13.00;10.00;;;;;;;;114835;1200;25481;-61
2022/12/06 14:43:00;;;;;;;;;11.00;7.50;;;;;;;;114858;1202;25647;-61
2022/12/06 14:43:26;;;;;;;;;11.00;7.00;;;;;;;;114885;1206;24922;-61
2022/12/06 14:45:54;;;;;;;;;7.50;5.00;;;;;;;;114878;1192;25047;-61
2022/12/06 14:48:23;;;;;;;;;10.50;8.00;;;;;;;;114773;1195;25820;-61
2022/12/06 14:51:00;;;;;;;;;10.00;7.50;;;;;;;;114812;1208;26632;-61
2022/12/06 14:53:34;;;;;;;;;7.33;6.33;;;;;;;;114888;1204;25576;-59
2022/12/06 14:56:24;;;;;;;;;10.00;8.00;;;;;;;;114857;1195;25135;-61
2022/12/06 14:58:55;;;;;;;;;9.50;7.00;;;;;;;;114781;1206;25246;-61
2022/12/06 15:01:30;;;;;;;;;6.50;6.50;;;;;;;;114798;1207;25293;-61
2022/12/06 15:04:01;;;;;;;;;10.00;8.00;;;;;;;;114860;1208;24796;-61
2022/12/06 15:06:33;;;;;;;;;12.00;7.00;;;;;;;;114760;1200;25563;-61
2022/12/06 15:09:01;;;;;;;;;12.50;7.50;;;;;;;;114823;1204;25177;-61
2022/12/06 15:14:27;;;;;;;;;8.00;7.50;;;;;;;;114716;1200;25453;-62
2022/12/06 15:17:00;;;;;;;;;6.00;6.00;;;;;;;;114832;1196;25041;-62
2022/12/06 15:19:32;;;;;;;;;9.00;6.00;;;;;;;;114831;1206;24897;-61
2022/12/06 15:22:00;;;;;;;;;8.00;7.00;;;;;;;;114665;1207;25297;-61
2022/12/06 15:24:29;;;;;;;;;11.00;8.00;;;;;;;;114920;1199;25477;-61
2022/12/06 15:26:58;;;;;;;;;7.50;7.00;;;;;;;;114820;1207;24811;-59
2022/12/06 15:29:26;;;;;;;;;6.00;5.50;;;;;;;;114896;1208;25211;-61
2022/12/06 15:31:55;;;;;;;;;12.50;8.25;;;;;;;;114900;1205;24928;-61
2022/12/06 15:34:25;;;;;;;;;8.00;7.67;;;;;;;;114793;1206;25657;-62